Storm Events Database

Event Details

Event Thunderstorm Wind
Magnitude 55 kts.
State TEXAS
County/Area DELTA
WFO FWD
Begin Date 04/24/2011 22:45:00 CST-6
Begin Range 0
Begin Azimuth WSW
Begin Location COOPER
Begin Lat/Lon 33.37/-95.69
End Date 04/24/2011 22:45:00 CST-6
Deaths Direct/Indirect 0/0 (fatality details below, when available...)
Injuries Direct/Indirect 0/0
Property Damage 10.00K
Crop Damage 0.00K
Episode Narrative Several rounds of severe thunderstorms developed to the west of north Texas along a stalled frontal boundary. These storms moved east and affected areas north of a Comanche to Dallas to Delta County line. There were numerous reports of hail across the impacted areas and several reports of damaging winds. Hail reached the size of baseballs in Wise County, and there were also many reports of golfball sized hail.
Event Narrative Large trees were knocked down at the intersection of 4th Street and Terrell Ave. Power lines were also knocked down in the city of Cooper.


All events for this episode:

Location County/Zone St. Date Time T.Z. Type Mag Dth Inj PrD CrD
Totals: 0 0 502.00K 0.00K
GRAFORD PALO PINTO CO. TX 04/24/2011 16:54 CST-6 Hail 0.75 in. 0 0 0.00K 0.00K
GRAFORD PALO PINTO CO. TX 04/24/2011 17:04 CST-6 Hail 1.50 in. 0 0 0.00K 0.00K
EOLIAN STEPHENS CO. TX 04/24/2011 17:25 CST-6 Hail 1.75 in. 0 0 1.00K 0.00K
WAYLAND STEPHENS CO. TX 04/24/2011 17:30 CST-6 Hail 2.00 in. 0 0 0.00K 0.00K
BRIDGEPORT WISE CO. TX 04/24/2011 17:32 CST-6 Thunderstorm Wind 52 kts. EG 0 0 0.00K 0.00K
DECATUR WISE CO. TX 04/24/2011 17:44 CST-6 Hail 1.00 in. 0 0 0.00K 0.00K
DECATUR WISE CO. TX 04/24/2011 17:44 CST-6 Hail 1.00 in. 0 0 0.00K 0.00K
AZLE TARRANT CO. TX 04/24/2011 17:55 CST-6 Thunderstorm Wind 52 kts. EG 0 0 0.00K 0.00K
JUSTIN DENTON CO. TX 04/24/2011 18:05 CST-6 Thunderstorm Wind 56 kts. EG 0 0 40.00K 0.00K
RANGER EASTLAND CO. TX 04/24/2011 18:05 CST-6 Hail 1.75 in. 0 0 5.00K 0.00K
DENTON DENTON CO. TX 04/24/2011 18:15 CST-6 Thunderstorm Wind 60 kts. EG 0 0 25.00K 0.00K
STRAWN PALO PINTO CO. TX 04/24/2011 18:20 CST-6 Hail 0.75 in. 0 0 0.00K 0.00K
CORINTH DENTON CO. TX 04/24/2011 18:25 CST-6 Thunderstorm Wind 60 kts. MG 0 0 40.00K 0.00K
LINDSAY COOKE CO. TX 04/24/2011 18:27 CST-6 Hail 1.00 in. 0 0 0.00K 0.00K
LAKE DALLAS DENTON CO. TX 04/24/2011 18:30 CST-6 Thunderstorm Wind 52 kts. EG 0 0 0.00K 0.00K
HOPE COOKE CO. TX 04/24/2011 18:30 CST-6 Hail 1.00 in. 0 0 0.00K 0.00K
LITTLE ELM DENTON CO. TX 04/24/2011 18:32 CST-6 Thunderstorm Wind 56 kts. EG 0 0 40.00K 0.00K
STRAWN PALO PINTO CO. TX 04/24/2011 18:35 CST-6 Hail 1.00 in. 0 0 0.00K 0.00K
WHITESBORO GRAYSON CO. TX 04/24/2011 18:39 CST-6 Thunderstorm Wind 52 kts. EG 0 0 0.00K 0.00K
GORDON PALO PINTO CO. TX 04/24/2011 18:43 CST-6 Hail 1.75 in. 0 0 5.00K 0.00K
TIFFIN EASTLAND CO. TX 04/24/2011 18:52 CST-6 Hail 1.00 in. 0 0 0.00K 0.00K
PROSPER COLLIN CO. TX 04/24/2011 18:53 CST-6 Hail 1.75 in. 0 0 15.00K 0.00K
SHERMAN MUNI ARPT GRAYSON CO. TX 04/24/2011 19:06 CST-6 Thunderstorm Wind 60 kts. EG 0 0 30.00K 0.00K
SANTO PALO PINTO CO. TX 04/24/2011 19:13 CST-6 Hail 1.50 in. 0 0 0.00K 0.00K
BRAZOS PALO PINTO CO. TX 04/24/2011 19:14 CST-6 Hail 2.00 in. 0 0 10.00K 0.00K
DENNIS PARKER CO. TX 04/24/2011 19:15 CST-6 Hail 1.50 in. 0 0 4.00K 0.00K
LIPAN HOOD CO. TX 04/24/2011 19:22 CST-6 Hail 1.75 in. 0 0 15.00K 0.00K
TRENTON FANNIN CO. TX 04/24/2011 19:26 CST-6 Hail 0.75 in. 0 0 0.00K 0.00K
WAPLES HOOD CO. TX 04/24/2011 19:53 CST-6 Hail 1.00 in. 0 0 0.00K 0.00K
MORGAN MILL ERATH CO. TX 04/24/2011 19:53 CST-6 Hail 1.75 in. 0 0 5.00K 0.00K
CRESSON HOOD CO. TX 04/24/2011 19:55 CST-6 Hail 1.25 in. 0 0 0.00K 0.00K
LIPAN HOOD CO. TX 04/24/2011 20:02 CST-6 Hail 1.50 in. 0 0 0.00K 0.00K
BENBROOK TARRANT CO. TX 04/24/2011 20:12 CST-6 Hail 1.00 in. 0 0 0.00K 0.00K
FT WORTH SYCAMORE AR TARRANT CO. TX 04/24/2011 20:22 CST-6 Hail 1.75 in. 0 0 50.00K 0.00K
EVERMAN TARRANT CO. TX 04/24/2011 20:24 CST-6 Hail 1.75 in. 0 0 50.00K 0.00K
CRESSON HOOD CO. TX 04/24/2011 20:48 CST-6 Hail 1.00 in. 0 0 0.00K 0.00K
CRESSON HOOD CO. TX 04/24/2011 20:53 CST-6 Hail 1.75 in. 0 0 5.00K 0.00K
ARLINGTON MUNI ARPT TARRANT CO. TX 04/24/2011 21:00 CST-6 Hail 1.00 in. 0 0 0.00K 0.00K
WYLIE COLLIN CO. TX 04/24/2011 21:35 CST-6 Hail 1.00 in. 0 0 0.00K 0.00K
MILLSAP PARKER CO. TX 04/24/2011 21:52 CST-6 Hail 1.75 in. 0 0 5.00K 0.00K
WEATHERFORD PARKER CO. TX 04/24/2011 22:05 CST-6 Hail 1.25 in. 0 0 0.00K 0.00K
HARBIN ERATH CO. TX 04/24/2011 22:07 CST-6 Hail 1.00 in. 0 0 0.00K 0.00K
COMANCHE COMANCHE CO. TX 04/24/2011 22:07 CST-6 Hail 1.00 in. 0 0 0.00K 0.00K
WEATHERFORD PARKER CO. TX 04/24/2011 22:13 CST-6 Hail 1.75 in. 0 0 10.00K 0.00K
WEATHERFORD ARPT PARKER CO. TX 04/24/2011 22:30 CST-6 Hail 1.25 in. 0 0 0.00K 0.00K
VANDYKE COMANCHE CO. TX 04/24/2011 22:33 CST-6 Hail 1.75 in. 0 0 1.00K 0.00K
LAKE WEATHERFORD PARKER CO. TX 04/24/2011 22:40 CST-6 Hail 1.75 in. 0 0 12.00K 0.00K
WEATHERFORD ARPT PARKER CO. TX 04/24/2011 22:41 CST-6 Hail 2.00 in. 0 0 60.00K 0.00K
COOPER DELTA CO. TX 04/24/2011 22:45 CST-6 Thunderstorm Wind 55 kts. EG 0 0 10.00K 0.00K
LA JUNTA PARKER CO. TX 04/24/2011 22:52 CST-6 Hail 1.00 in. 0 0 0.00K 0.00K
(FWH)CARSWELL AFB FT TARRANT CO. TX 04/24/2011 23:02 CST-6 Hail 0.88 in. 0 0 0.00K 0.00K
LAKE WORTH TARRANT CO. TX 04/24/2011 23:04 CST-6 Hail 1.00 in. 0 0 0.00K 0.00K
PETTIT COMANCHE CO. TX 04/24/2011 23:32 CST-6 Hail 1.75 in. 0 0 2.00K 0.00K
WEATHERFORD PARKER CO. TX 04/25/2011 01:42 CST-6 Hail 1.75 in. 0 0 10.00K 0.00K
BOONSVILLE WISE CO. TX 04/25/2011 01:52 CST-6 Hail 2.75 in. 0 0 30.00K 0.00K
PARADISE WISE CO. TX 04/25/2011 01:57 CST-6 Hail 1.00 in. 0 0 0.00K 0.00K
COTTONDALE WISE CO. TX 04/25/2011 02:03 CST-6 Hail 0.88 in. 0 0 0.00K 0.00K
PARADISE WISE CO. TX 04/25/2011 02:05 CST-6 Hail 1.75 in. 0 0 8.00K 0.00K
EAGLE TARRANT CO. TX 04/25/2011 02:27 CST-6 Hail 1.75 in. 0 0 4.00K 0.00K
RHOME WISE CO. TX 04/25/2011 02:27 CST-6 Hail 1.00 in. 0 0 0.00K 0.00K
EAGLE TARRANT CO. TX 04/25/2011 02:29 CST-6 Hail 1.00 in. 0 0 0.00K 0.00K
KELLER TARRANT CO. TX 04/25/2011 03:00 CST-6 Hail 0.75 in. 0 0 0.00K 0.00K
WATAUGA TARRANT CO. TX 04/25/2011 03:27 CST-6 Hail 1.00 in. 0 0 0.00K 0.00K
NORTH RICHLAND HILLS TARRANT CO. TX 04/25/2011 03:27 CST-6 Hail 1.00 in. 0 0 0.00K 0.00K
FT WORTH MANGHAM ARP TARRANT CO. TX 04/25/2011 03:35 CST-6 Hail 1.00 in. 0 0 0.00K 0.00K
PLEASANT GLADE TARRANT CO. TX 04/25/2011 03:49 CST-6 Hail 0.75 in. 0 0 0.00K 0.00K
GRAPEVINE TARRANT CO. TX 04/25/2011 03:52 CST-6 Hail 1.75 in. 0 0 10.00K 0.00K
DE SOTO DALLAS CO. TX 04/25/2011 04:07 CST-6 Hail 0.88 in. 0 0 0.00K 0.00K
Totals: 0 0 502.00K 0.00K